Terminal Aerodrome Forecast
Issued by NWS

Home | Current Version | Previous Version | Text Only | Print | Product List | Glossary On
Versions: 1 2 3 4 5 6 7 8 9 10 11 12 13 14
000
FTUS45 KMSO 231720
TAFSMN
TAF
KSMN 231720Z 2318/2418 01012G20KT P6SM VCSH BKN070
     FM240100 08012G20KT P6SM SCT070
     FM240300 08005KT P6SM SKC=

USA.gov is the U.S. government's official web portal to all federal, state and local government web resources and services.